Blencoe, Iowa
Current Conditions -  °F | °C
As of 5:54 PM on Friday 28 Nov 2014 (Local Time) from KTQE Reporting Station
Clear Clear  
Wind Chill: 35°   Ceiling: Unl
Heat Index: 42°   Visibility: 10mi
Dew Point: 29°   Wind: 13mph
Humidity: 60%   Direction: 150°SSE
Pressure: 29.66"   Gusts: NA
Location:  41.93°N, 96.08°W
Report Text: KTQE 282354Z AUTO 15011KT 10SM CLR 06/M02 A2966 RMK AO2 SLP048 T00561017 10122 20056 58006
Loading
Personal Weather Stations






























Interactive Weather Map New forecast layout! Learn more

10-Day Weather Forecast

Advertisements
Track Severe Weather on mobile